sensor_id;sensor_type;location;lat;lon;timestamp;pressure;altitude;pressure_sealevel;temperature;humidity
65718;BME280;52445;52.466;-1.016;2023-04-25T00:01:05;100183.78;;;3.88;62.99
65718;BME280;52445;52.466;-1.016;2023-04-25T00:03:32;100184.56;;;3.85;63.45
65718;BME280;52445;52.466;-1.016;2023-04-25T00:05:59;100181.09;;;3.83;63.67
65718;BME280;52445;52.466;-1.016;2023-04-25T00:08:29;100176.66;;;3.77;63.92
65718;BME280;52445;52.466;-1.016;2023-04-25T00:10:57;100187.84;;;3.81;63.32
65718;BME280;52445;52.466;-1.016;2023-04-25T00:13:24;100186.91;;;3.77;63.68
65718;BME280;52445;52.466;-1.016;2023-04-25T00:15:52;100185.28;;;3.79;63.93
65718;BME280;52445;52.466;-1.016;2023-04-25T00:18:20;100188.56;;;3.75;64.05
65718;BME280;52445;52.466;-1.016;2023-04-25T00:20:46;100195.44;;;3.76;64.12
65718;BME280;52445;52.466;-1.016;2023-04-25T00:23:14;100185.19;;;3.76;64.61
65718;BME280;52445;52.466;-1.016;2023-04-25T00:25:44;100184.31;;;3.76;64.77
65718;BME280;52445;52.466;-1.016;2023-04-25T00:28:12;100179.13;;;3.74;63.84
65718;BME280;52445;52.466;-1.016;2023-04-25T00:30:39;100176.56;;;3.74;64.34
65718;BME280;52445;52.466;-1.016;2023-04-25T00:33:06;100176.53;;;3.72;64.25
65718;BME280;52445;52.466;-1.016;2023-04-25T00:35:34;100181.63;;;3.71;63.68
65718;BME280;52445;52.466;-1.016;2023-04-25T00:38:01;100180.66;;;3.67;64.11
65718;BME280;52445;52.466;-1.016;2023-04-25T00:40:28;100181.47;;;3.65;64.23
65718;BME280;52445;52.466;-1.016;2023-04-25T00:42:54;100182.25;;;3.62;63.71
65718;BME280;52445;52.466;-1.016;2023-04-25T00:45:21;100182.22;;;3.60;63.29
65718;BME280;52445;52.466;-1.016;2023-04-25T00:47:48;100186.31;;;3.55;64.63
65718;BME280;52445;52.466;-1.016;2023-04-25T00:50:14;100188.81;;;3.52;63.98
65718;BME280;52445;52.466;-1.016;2023-04-25T00:52:43;100187.88;;;3.50;64.20
65718;BME280;52445;52.466;-1.016;2023-04-25T00:55:11;100190.25;;;3.44;64.17
65718;BME280;52445;52.466;-1.016;2023-04-25T00:57:38;100187.63;;;3.41;64.14
65718;BME280;52445;52.466;-1.016;2023-04-25T01:00:06;100178.94;;;3.36;64.94
65718;BME280;52445;52.466;-1.016;2023-04-25T01:02:33;100183.94;;;3.32;64.46
65718;BME280;52445;52.466;-1.016;2023-04-25T01:05:02;100188.22;;;3.32;64.88
65718;BME280;52445;52.466;-1.016;2023-04-25T01:07:30;100180.44;;;3.29;64.76
65718;BME280;52445;52.466;-1.016;2023-04-25T01:09:56;100189.78;;;3.27;64.93
65718;BME280;52445;52.466;-1.016;2023-04-25T01:12:23;100185.44;;;3.24;64.33
65718;BME280;52445;52.466;-1.016;2023-04-25T01:14:50;100187.94;;;3.22;65.00
65718;BME280;52445;52.466;-1.016;2023-04-25T01:17:17;100193.84;;;3.20;64.33
65718;BME280;52445;52.466;-1.016;2023-04-25T01:19:44;100190.38;;;3.18;64.13
65718;BME280;52445;52.466;-1.016;2023-04-25T01:22:12;100189.41;;;3.14;64.17
65718;BME280;52445;52.466;-1.016;2023-04-25T01:24:41;100190.19;;;3.12;64.42
65718;BME280;52445;52.466;-1.016;2023-04-25T01:27:08;100188.47;;;3.11;64.20
65718;BME280;52445;52.466;-1.016;2023-04-25T01:29:36;100192.66;;;3.08;65.48
65718;BME280;52445;52.466;-1.016;2023-04-25T01:32:04;100190.91;;;3.07;65.06
65718;BME280;52445;52.466;-1.016;2023-04-25T01:34:32;100188.25;;;3.04;65.20
65718;BME280;52445;52.466;-1.016;2023-04-25T01:36:59;100192.38;;;2.99;64.85
65718;BME280;52445;52.466;-1.016;2023-04-25T01:39:28;100194.06;;;2.99;65.67
65718;BME280;52445;52.466;-1.016;2023-04-25T01:41:54;100191.44;;;2.97;64.71
65718;BME280;52445;52.466;-1.016;2023-04-25T01:44:23;100195.66;;;2.95;65.19
65718;BME280;52445;52.466;-1.016;2023-04-25T01:46:49;100201.63;;;2.94;64.39
65718;BME280;52445;52.466;-1.016;2023-04-25T01:49:16;100203.25;;;2.92;64.61
65718;BME280;52445;52.466;-1.016;2023-04-25T01:51:43;100209.13;;;2.89;64.54
65718;BME280;52445;52.466;-1.016;2023-04-25T01:54:10;100214.09;;;2.85;65.03
65718;BME280;52445;52.466;-1.016;2023-04-25T01:56:37;100218.31;;;2.82;64.28
65718;BME280;52445;52.466;-1.016;2023-04-25T01:59:05;100210.50;;;2.78;64.46
65718;BME280;52445;52.466;-1.016;2023-04-25T02:01:32;100216.38;;;2.75;64.12
65718;BME280;52445;52.466;-1.016;2023-04-25T02:03:59;100211.16;;;2.72;64.32
65718;BME280;52445;52.466;-1.016;2023-04-25T02:06:26;100211.06;;;2.69;65.11
65718;BME280;52445;52.466;-1.016;2023-04-25T02:08:52;100205.84;;;2.66;64.88
65718;BME280;52445;52.466;-1.016;2023-04-25T02:11:19;100212.63;;;2.64;65.32
65718;BME280;52445;52.466;-1.016;2023-04-25T02:13:46;100209.13;;;2.62;64.49
65718;BME280;52445;52.466;-1.016;2023-04-25T02:16:12;100210.78;;;2.60;65.21
65718;BME280;52445;52.466;-1.016;2023-04-25T02:18:40;100212.41;;;2.57;65.20
65718;BME280;52445;52.466;-1.016;2023-04-25T02:21:06;100214.81;;;2.53;64.69
65718;BME280;52445;52.466;-1.016;2023-04-25T02:23:33;100213.94;;;2.52;64.52
65718;BME280;52445;52.466;-1.016;2023-04-25T02:26:00;100207.00;;;2.48;65.51
65718;BME280;52445;52.466;-1.016;2023-04-25T02:28:26;100214.50;;;2.43;65.18
65718;BME280;52445;52.466;-1.016;2023-04-25T02:30:53;100218.75;;;2.43;65.19
65718;BME280;52445;52.466;-1.016;2023-04-25T02:33:20;100222.06;;;2.40;65.86
65718;BME280;52445;52.466;-1.016;2023-04-25T02:35:47;100226.28;;;2.38;65.47
65718;BME280;52445;52.466;-1.016;2023-04-25T02:38:14;100224.44;;;2.34;65.24
65718;BME280;52445;52.466;-1.016;2023-04-25T02:40:41;100221.00;;;2.34;65.54
65718;BME280;52445;52.466;-1.016;2023-04-25T02:43:07;100225.22;;;2.31;65.59
65718;BME280;52445;52.466;-1.016;2023-04-25T02:45:34;100225.22;;;2.31;65.29
65718;BME280;52445;52.466;-1.016;2023-04-25T02:48:02;100223.44;;;2.30;65.98
65718;BME280;52445;52.466;-1.016;2023-04-25T02:50:29;100229.34;;;2.28;65.05
65718;BME280;52445;52.466;-1.016;2023-04-25T02:52:55;100225.88;;;2.26;64.93
65718;BME280;52445;52.466;-1.016;2023-04-25T02:55:22;100220.66;;;2.23;65.45
65718;BME280;52445;52.466;-1.016;2023-04-25T02:57:51;100215.47;;;2.21;65.36
65718;BME280;52445;52.466;-1.016;2023-04-25T03:00:18;100216.31;;;2.20;65.39
65718;BME280;52445;52.466;-1.016;2023-04-25T03:02:45;100217.94;;;2.18;65.40
65718;BME280;52445;52.466;-1.016;2023-04-25T03:05:12;100212.69;;;2.15;66.21
65718;BME280;52445;52.466;-1.016;2023-04-25T03:07:38;100214.34;;;2.13;65.77
65718;BME280;52445;52.466;-1.016;2023-04-25T03:10:06;100213.41;;;2.11;65.36
65718;BME280;52445;52.466;-1.016;2023-04-25T03:12:33;100217.63;;;2.09;66.02
65718;BME280;52445;52.466;-1.016;2023-04-25T03:15:00;100219.25;;;2.07;66.18
65718;BME280;52445;52.466;-1.016;2023-04-25T03:17:27;100227.72;;;2.05;65.36
65718;BME280;52445;52.466;-1.016;2023-04-25T03:19:54;100239.56;;;2.03;65.54
65718;BME280;52445;52.466;-1.016;2023-04-25T03:22:22;100234.38;;;2.00;65.14
65718;BME280;52445;52.466;-1.016;2023-04-25T03:24:49;100240.22;;;1.98;65.99
65718;BME280;52445;52.466;-1.016;2023-04-25T03:27:17;100240.97;;;1.95;66.54
65718;BME280;52445;52.466;-1.016;2023-04-25T03:29:43;100245.97;;;1.92;65.41
65718;BME280;52445;52.466;-1.016;2023-04-25T03:32:10;100241.69;;;1.91;66.55
65718;BME280;52445;52.466;-1.016;2023-04-25T03:34:37;100248.44;;;1.89;66.10
65718;BME280;52445;52.466;-1.016;2023-04-25T03:37:03;100251.00;;;1.89;65.68
65718;BME280;52445;52.466;-1.016;2023-04-25T03:39:30;100254.34;;;1.88;65.78
65718;BME280;52445;52.466;-1.016;2023-04-25T03:41:56;100250.88;;;1.86;66.03
65718;BME280;52445;52.466;-1.016;2023-04-25T03:44:23;100247.41;;;1.84;65.53
65718;BME280;52445;52.466;-1.016;2023-04-25T03:46:50;100254.16;;;1.82;66.12
65718;BME280;52445;52.466;-1.016;2023-04-25T03:49:17;100260.88;;;1.79;66.14
65718;BME280;52445;52.466;-1.016;2023-04-25T03:51:44;100267.63;;;1.77;65.64
65718;BME280;52445;52.466;-1.016;2023-04-25T03:54:11;100274.22;;;1.72;66.56
65718;BME280;52445;52.466;-1.016;2023-04-25T03:56:38;100271.56;;;1.69;66.89
65718;BME280;52445;52.466;-1.016;2023-04-25T03:59:04;100269.69;;;1.65;65.86
65718;BME280;52445;52.466;-1.016;2023-04-25T04:01:31;100270.53;;;1.64;67.24
65718;BME280;52445;52.466;-1.016;2023-04-25T04:03:58;100267.06;;;1.62;66.39
65718;BME280;52445;52.466;-1.016;2023-04-25T04:06:25;100272.03;;;1.59;66.58
65718;BME280;52445;52.466;-1.016;2023-04-25T04:08:51;100277.22;;;1.60;67.24
65718;BME280;52445;52.466;-1.016;2023-04-25T04:11:18;100275.44;;;1.59;67.53
65718;BME280;52445;52.466;-1.016;2023-04-25T04:13:44;100269.50;;;1.59;66.22
65718;BME280;52445;52.466;-1.016;2023-04-25T04:16:11;100283.88;;;1.57;67.47
65718;BME280;52445;52.466;-1.016;2023-04-25T04:18:38;100285.50;;;1.54;66.74
65718;BME280;52445;52.466;-1.016;2023-04-25T04:21:04;100285.38;;;1.51;66.93
65718;BME280;52445;52.466;-1.016;2023-04-25T04:23:31;100287.13;;;1.52;67.19
65718;BME280;52445;52.466;-1.016;2023-04-25T04:25:58;100291.31;;;1.50;66.85
65718;BME280;52445;52.466;-1.016;2023-04-25T04:28:24;100290.25;;;1.45;67.04
65718;BME280;52445;52.466;-1.016;2023-04-25T04:30:52;100275.69;;;1.43;68.20
65718;BME280;52445;52.466;-1.016;2023-04-25T04:33:19;100285.03;;;1.42;68.20
65718;BME280;52445;52.466;-1.016;2023-04-25T04:35:46;100294.38;;;1.41;67.74
65718;BME280;52445;52.466;-1.016;2023-04-25T04:38:13;100304.47;;;1.38;67.34
65718;BME280;52445;52.466;-1.016;2023-04-25T04:40:41;100300.25;;;1.39;67.93
65718;BME280;52445;52.466;-1.016;2023-04-25T04:43:09;100298.47;;;1.38;67.50
65718;BME280;52445;52.466;-1.016;2023-04-25T04:45:36;100295.00;;;1.36;68.27
65718;BME280;52445;52.466;-1.016;2023-04-25T04:48:05;100301.84;;;1.37;68.37
65718;BME280;52445;52.466;-1.016;2023-04-25T04:50:32;100299.16;;;1.34;67.43
65718;BME280;52445;52.466;-1.016;2023-04-25T04:52:59;100292.38;;;1.34;67.66
65718;BME280;52445;52.466;-1.016;2023-04-25T04:55:26;100293.28;;;1.35;67.54
65718;BME280;52445;52.466;-1.016;2023-04-25T04:57:53;100295.00;;;1.36;67.62
65718;BME280;52445;52.466;-1.016;2023-04-25T05:00:19;100292.38;;;1.34;67.96
65718;BME280;52445;52.466;-1.016;2023-04-25T05:02:47;100293.38;;;1.38;68.58
65718;BME280;52445;52.466;-1.016;2023-04-25T05:05:14;100293.38;;;1.38;68.74
65718;BME280;52445;52.466;-1.016;2023-04-25T05:07:40;100291.75;;;1.40;67.57
65718;BME280;52445;52.466;-1.016;2023-04-25T05:10:07;100300.38;;;1.42;67.94
65718;BME280;52445;52.466;-1.016;2023-04-25T05:12:34;100296.16;;;1.44;67.26
65718;BME280;52445;52.466;-1.016;2023-04-25T05:15:02;100308.94;;;1.44;68.56
65718;BME280;52445;52.466;-1.016;2023-04-25T05:17:29;100310.78;;;1.48;68.96
65718;BME280;52445;52.466;-1.016;2023-04-25T05:19:56;100316.78;;;1.49;67.90
65718;BME280;52445;52.466;-1.016;2023-04-25T05:22:23;100320.25;;;1.51;69.18
65718;BME280;52445;52.466;-1.016;2023-04-25T05:24:50;100328.03;;;1.54;68.48
65718;BME280;52445;52.466;-1.016;2023-04-25T05:27:21;100340.03;;;1.57;67.80
65718;BME280;52445;52.466;-1.016;2023-04-25T05:29:47;100334.94;;;1.57;68.88
65718;BME280;52445;52.466;-1.016;2023-04-25T05:32:14;100333.44;;;1.62;68.24
65718;BME280;52445;52.466;-1.016;2023-04-25T05:34:41;100328.69;;;1.71;68.14
65718;BME280;52445;52.466;-1.016;2023-04-25T05:37:08;100333.25;;;1.80;67.92
65718;BME280;52445;52.466;-1.016;2023-04-25T05:39:35;100335.97;;;1.85;69.15
65718;BME280;52445;52.466;-1.016;2023-04-25T05:42:01;100341.09;;;1.85;68.72
65718;BME280;52445;52.466;-1.016;2023-04-25T05:44:28;100338.50;;;1.83;69.15
65718;BME280;52445;52.466;-1.016;2023-04-25T05:46:55;100341.19;;;1.88;67.42
65718;BME280;52445;52.466;-1.016;2023-04-25T05:49:21;100345.28;;;1.83;68.94
65718;BME280;52445;52.466;-1.016;2023-04-25T05:51:48;100344.69;;;1.90;68.23
65718;BME280;52445;52.466;-1.016;2023-04-25T05:54:15;100348.16;;;1.92;69.33
65718;BME280;52445;52.466;-1.016;2023-04-25T05:56:41;100342.31;;;1.95;67.94
65718;BME280;52445;52.466;-1.016;2023-04-25T05:59:08;100338.19;;;1.98;68.36
65718;BME280;52445;52.466;-1.016;2023-04-25T06:01:34;100349.44;;;2.03;69.30
65718;BME280;52445;52.466;-1.016;2023-04-25T06:04:01;100356.34;;;2.06;68.51
65718;BME280;52445;52.466;-1.016;2023-04-25T06:06:28;100364.19;;;2.11;68.11
65718;BME280;52445;52.466;-1.016;2023-04-25T06:08:55;100362.69;;;2.16;68.25
65718;BME280;52445;52.466;-1.016;2023-04-25T06:11:22;100359.31;;;2.17;68.26
65718;BME280;52445;52.466;-1.016;2023-04-25T06:13:48;100368.94;;;2.24;67.92
65718;BME280;52445;52.466;-1.016;2023-04-25T06:16:15;100366.59;;;2.30;68.73
65718;BME280;52445;52.466;-1.016;2023-04-25T06:18:42;100370.22;;;2.36;68.38
65718;BME280;52445;52.466;-1.016;2023-04-25T06:21:09;100375.53;;;2.42;68.09
65718;BME280;52445;52.466;-1.016;2023-04-25T06:23:35;100368.91;;;2.47;68.62
65718;BME280;52445;52.466;-1.016;2023-04-25T06:26:02;100375.88;;;2.51;68.44
65718;BME280;52445;52.466;-1.016;2023-04-25T06:28:28;100382.91;;;2.59;68.33
65718;BME280;52445;52.466;-1.016;2023-04-25T06:30:55;100377.91;;;2.62;67.60
65718;BME280;52445;52.466;-1.016;2023-04-25T06:33:22;100379.88;;;2.69;68.65
65718;BME280;52445;52.466;-1.016;2023-04-25T06:35:50;100378.44;;;2.77;68.63
65718;BME280;52445;52.466;-1.016;2023-04-25T06:38:17;100370.25;;;3.12;68.21
65718;BME280;52445;52.466;-1.016;2023-04-25T06:40:43;100377.94;;;3.67;68.28
65718;BME280;52445;52.466;-1.016;2023-04-25T06:43:10;100371.00;;;4.23;66.68
65718;BME280;52445;52.466;-1.016;2023-04-25T06:45:37;100370.59;;;4.72;66.36
65718;BME280;52445;52.466;-1.016;2023-04-25T06:48:03;100376.78;;;5.12;64.89
65718;BME280;52445;52.466;-1.016;2023-04-25T06:50:30;100383.66;;;5.50;64.96
65718;BME280;52445;52.466;-1.016;2023-04-25T06:52:57;100392.31;;;5.92;63.48
65718;BME280;52445;52.466;-1.016;2023-04-25T06:55:23;100403.34;;;6.27;63.51
65718;BME280;52445;52.466;-1.016;2023-04-25T06:57:50;100391.94;;;6.57;62.82
65718;BME280;52445;52.466;-1.016;2023-04-25T07:00:17;100402.75;;;6.85;61.10
65718;BME280;52445;52.466;-1.016;2023-04-25T07:02:43;100398.13;;;7.16;61.81
65718;BME280;52445;52.466;-1.016;2023-04-25T07:05:10;100398.59;;;7.44;59.88
65718;BME280;52445;52.466;-1.016;2023-04-25T07:07:37;100405.84;;;7.70;59.18
65718;BME280;52445;52.466;-1.016;2023-04-25T07:10:04;100412.22;;;7.96;59.26
65718;BME280;52445;52.466;-1.016;2023-04-25T07:12:31;100413.50;;;8.28;59.02
65718;BME280;52445;52.466;-1.016;2023-04-25T07:14:58;100412.91;;;8.49;58.21
65718;BME280;52445;52.466;-1.016;2023-04-25T07:17:24;100407.25;;;8.80;58.00
65718;BME280;52445;52.466;-1.016;2023-04-25T07:19:51;100415.19;;;8.98;57.16
65718;BME280;52445;52.466;-1.016;2023-04-25T07:22:18;100409.31;;;9.18;57.07
65718;BME280;52445;52.466;-1.016;2023-04-25T07:24:44;100407.88;;;9.51;56.34
65718;BME280;52445;52.466;-1.016;2023-04-25T07:27:15;100409.78;;;9.81;56.41
65718;BME280;52445;52.466;-1.016;2023-04-25T07:29:41;100412.53;;;10.06;55.24
65718;BME280;52445;52.466;-1.016;2023-04-25T07:32:08;100418.66;;;10.26;54.58
65718;BME280;52445;52.466;-1.016;2023-04-25T07:34:36;100417.94;;;10.54;54.30
65718;BME280;52445;52.466;-1.016;2023-04-25T07:37:05;100411.94;;;10.78;54.24
65718;BME280;52445;52.466;-1.016;2023-04-25T07:39:31;100421.50;;;11.00;53.45
65718;BME280;52445;52.466;-1.016;2023-04-25T07:41:58;100425.84;;;11.24;53.00
65718;BME280;52445;52.466;-1.016;2023-04-25T07:44:25;100429.31;;;11.36;51.09
65718;BME280;52445;52.466;-1.016;2023-04-25T07:46:52;100425.84;;;11.46;51.46
65718;BME280;52445;52.466;-1.016;2023-04-25T07:49:18;100436.22;;;11.62;50.83
65718;BME280;52445;52.466;-1.016;2023-04-25T07:51:45;100443.13;;;11.77;50.54
65718;BME280;52445;52.466;-1.016;2023-04-25T07:54:14;100441.34;;;11.99;50.47
65718;BME280;52445;52.466;-1.016;2023-04-25T07:56:41;100443.94;;;12.13;49.83
65718;BME280;52445;52.466;-1.016;2023-04-25T07:59:18;100443.03;;;12.28;48.84
65718;BME280;52445;52.466;-1.016;2023-04-25T08:01:45;100451.59;;;12.49;49.65
65718;BME280;52445;52.466;-1.016;2023-04-25T08:04:11;100455.00;;;12.68;49.21
65718;BME280;52445;52.466;-1.016;2023-04-25T08:06:38;100458.44;;;12.72;48.18
65718;BME280;52445;52.466;-1.016;2023-04-25T08:09:05;100458.31;;;12.94;48.58
65718;BME280;52445;52.466;-1.016;2023-04-25T08:11:32;100460.78;;;13.14;47.68
65718;BME280;52445;52.466;-1.016;2023-04-25T08:13:59;100465.97;;;13.16;47.83
65718;BME280;52445;52.466;-1.016;2023-04-25T08:16:25;100463.25;;;13.31;47.79
65718;BME280;52445;52.466;-1.016;2023-04-25T08:18:52;100470.16;;;13.35;46.73
65718;BME280;52445;52.466;-1.016;2023-04-25T08:21:19;100474.41;;;13.55;46.64
65718;BME280;52445;52.466;-1.016;2023-04-25T08:23:46;100475.91;;;13.81;46.47
65718;BME280;52445;52.466;-1.016;2023-04-25T08:26:13;100475.75;;;13.95;46.00
65718;BME280;52445;52.466;-1.016;2023-04-25T08:28:39;100471.28;;;14.10;45.96
65718;BME280;52445;52.466;-1.016;2023-04-25T08:31:06;100471.25;;;14.14;45.22
65718;BME280;52445;52.466;-1.016;2023-04-25T08:33:33;100478.88;;;14.32;45.41
65718;BME280;52445;52.466;-1.016;2023-04-25T08:35:59;100487.44;;;14.43;44.64
65718;BME280;52445;52.466;-1.016;2023-04-25T08:38:26;100487.31;;;14.52;43.74
65718;BME280;52445;52.466;-1.016;2023-04-25T08:40:54;100483.69;;;14.66;43.57
65718;BME280;52445;52.466;-1.016;2023-04-25T08:43:23;100485.97;;;14.93;44.33
65718;BME280;52445;52.466;-1.016;2023-04-25T08:45:52;100492.41;;;15.28;43.87
65718;BME280;52445;52.466;-1.016;2023-04-25T08:48:21;100498.03;;;15.60;43.86
65718;BME280;52445;52.466;-1.016;2023-04-25T08:50:50;100489.59;;;15.96;43.89
65718;BME280;52445;52.466;-1.016;2023-04-25T08:53:20;100485.91;;;16.08;43.18
65718;BME280;52445;52.466;-1.016;2023-04-25T08:55:48;100488.03;;;16.32;42.68
65718;BME280;52445;52.466;-1.016;2023-04-25T08:58:18;100479.31;;;16.34;41.88
65718;BME280;52445;52.466;-1.016;2023-04-25T09:00:46;100481.97;;;16.32;41.35
65718;BME280;52445;52.466;-1.016;2023-04-25T09:03:13;100480.47;;;16.18;40.85
65718;BME280;52445;52.466;-1.016;2023-04-25T09:05:41;100477.16;;;16.10;40.84
65718;BME280;52445;52.466;-1.016;2023-04-25T09:08:10;100490.88;;;16.22;40.23
65718;BME280;52445;52.466;-1.016;2023-04-25T09:10:37;100487.41;;;16.19;39.77
65718;BME280;52445;52.466;-1.016;2023-04-25T09:15:57;100482.69;;;16.39;41.27
65718;BME280;52445;52.466;-1.016;2023-04-25T09:21:09;100475.91;;;16.73;39.95
65718;BME280;52445;52.466;-1.016;2023-04-25T09:23:43;100474.16;;;16.73;39.54
65718;BME280;52445;52.466;-1.016;2023-04-25T09:26:14;100469.88;;;16.69;40.02
65718;BME280;52445;52.466;-1.016;2023-04-25T09:28:41;100475.09;;;16.70;40.12
65718;BME280;52445;52.466;-1.016;2023-04-25T09:31:10;100480.94;;;16.82;39.42
65718;BME280;52445;52.466;-1.016;2023-04-25T09:33:37;100470.91;;;17.01;40.29
65718;BME280;52445;52.466;-1.016;2023-04-25T09:36:06;100480.06;;;17.23;40.07
65718;BME280;52445;52.466;-1.016;2023-04-25T09:38:43;100479.47;;;17.47;39.33
65718;BME280;52445;52.466;-1.016;2023-04-25T09:41:10;100475.41;;;17.70;38.66
65718;BME280;52445;52.466;-1.016;2023-04-25T09:43:39;100471.91;;;17.71;37.21
65718;BME280;52445;52.466;-1.016;2023-04-25T09:46:10;100477.56;;;17.54;37.21
65718;BME280;52445;52.466;-1.016;2023-04-25T09:48:38;100474.31;;;17.44;37.96
65718;BME280;52445;52.466;-1.016;2023-04-25T09:53:46;100477.22;;;17.32;38.91
65718;BME280;52445;52.466;-1.016;2023-04-25T09:56:18;100466.44;;;17.08;38.17
65718;BME280;52445;52.466;-1.016;2023-04-25T09:58:46;100466.28;;;16.75;37.89
65718;BME280;52445;52.466;-1.016;2023-04-25T10:01:14;100466.66;;;16.56;37.89
65718;BME280;52445;52.466;-1.016;2023-04-25T10:03:43;100463.84;;;16.65;38.79
65718;BME280;52445;52.466;-1.016;2023-04-25T10:06:13;100458.41;;;16.76;38.07
65718;BME280;52445;52.466;-1.016;2023-04-25T10:08:41;100469.56;;;16.85;37.69
65718;BME280;52445;52.466;-1.016;2023-04-25T10:11:08;100469.44;;;16.89;37.97
65718;BME280;52445;52.466;-1.016;2023-04-25T10:13:35;100466.69;;;16.95;37.88
65718;BME280;52445;52.466;-1.016;2023-04-25T10:16:04;100468.25;;;17.06;37.46
65718;BME280;52445;52.466;-1.016;2023-04-25T10:18:32;100471.06;;;16.93;38.05
65718;BME280;52445;52.466;-1.016;2023-04-25T10:21:01;100467.47;;;16.58;37.68
65718;BME280;52445;52.466;-1.016;2023-04-25T10:23:30;100465.69;;;16.17;37.49
65718;BME280;52445;52.466;-1.016;2023-04-25T10:25:59;100470.72;;;15.78;37.82
65718;BME280;52445;52.466;-1.016;2023-04-25T10:28:26;100475.56;;;15.49;38.15
65718;BME280;52445;52.466;-1.016;2023-04-25T10:31:03;100464.28;;;15.47;38.39
65718;BME280;52445;52.466;-1.016;2023-04-25T10:33:37;100459.69;;;15.60;38.77
65718;BME280;52445;52.466;-1.016;2023-04-25T10:38:52;100459.63;;;15.65;38.01
65718;BME280;52445;52.466;-1.016;2023-04-25T10:41:21;100472.16;;;15.94;38.74
65718;BME280;52445;52.466;-1.016;2023-04-25T10:43:59;100475.09;;;16.28;37.90
65718;BME280;52445;52.466;-1.016;2023-04-25T10:46:28;100479.75;;;16.56;37.70
65718;BME280;52445;52.466;-1.016;2023-04-25T10:49:00;100465.78;;;16.57;36.45
65718;BME280;52445;52.466;-1.016;2023-04-25T10:51:40;100468.09;;;16.28;36.17
65718;BME280;52445;52.466;-1.016;2023-04-25T10:54:22;100472.00;;;16.05;36.67
65718;BME280;52445;52.466;-1.016;2023-04-25T10:56:50;100471.56;;;15.78;36.98
65718;BME280;52445;52.466;-1.016;2023-04-25T10:59:18;100472.72;;;15.63;37.13
65718;BME280;52445;52.466;-1.016;2023-04-25T11:01:47;100473.50;;;15.68;37.11
65718;BME280;52445;52.466;-1.016;2023-04-25T11:04:28;100469.03;;;15.75;37.32
65718;BME280;52445;52.466;-1.016;2023-04-25T11:09:34;100464.88;;;15.63;36.84
65718;BME280;52445;52.466;-1.016;2023-04-25T11:12:02;100470.34;;;15.48;36.71
65718;BME280;52445;52.466;-1.016;2023-04-25T11:14:29;100473.25;;;15.29;36.72
65718;BME280;52445;52.466;-1.016;2023-04-25T11:16:59;100471.50;;;15.31;38.01
65718;BME280;52445;52.466;-1.016;2023-04-25T11:19:28;100474.97;;;15.30;37.52
65718;BME280;52445;52.466;-1.016;2023-04-25T11:21:57;100472.47;;;15.25;37.78
65718;BME280;52445;52.466;-1.016;2023-04-25T11:27:04;100475.03;;;14.61;36.87
65718;BME280;52445;52.466;-1.016;2023-04-25T11:29:33;100472.56;;;14.53;37.33
65718;BME280;52445;52.466;-1.016;2023-04-25T11:32:00;100479.34;;;14.63;37.82
65718;BME280;52445;52.466;-1.016;2023-04-25T11:34:29;100473.13;;;14.75;37.37
65718;BME280;52445;52.466;-1.016;2023-04-25T11:36:57;100469.84;;;14.59;37.58
65718;BME280;52445;52.466;-1.016;2023-04-25T11:39:24;100463.53;;;14.79;38.10
65718;BME280;52445;52.466;-1.016;2023-04-25T11:41:51;100453.59;;;15.06;38.39
65718;BME280;52445;52.466;-1.016;2023-04-25T11:44:19;100466.72;;;15.03;37.02
65718;BME280;52445;52.466;-1.016;2023-04-25T11:46:46;100465.31;;;14.77;36.70
65718;BME280;52445;52.466;-1.016;2023-04-25T11:49:14;100460.31;;;14.58;37.44
65718;BME280;52445;52.466;-1.016;2023-04-25T11:51:42;100462.22;;;14.44;37.43
65718;BME280;52445;52.466;-1.016;2023-04-25T11:54:10;100466.72;;;14.31;37.58
65718;BME280;52445;52.466;-1.016;2023-04-25T11:56:42;100474.47;;;14.35;37.20
65718;BME280;52445;52.466;-1.016;2023-04-25T11:59:09;100462.16;;;14.48;38.21
65718;BME280;52445;52.466;-1.016;2023-04-25T12:01:38;100467.28;;;14.56;38.15
65718;BME280;52445;52.466;-1.016;2023-04-25T12:04:15;100463.59;;;14.73;37.27
65718;BME280;52445;52.466;-1.016;2023-04-25T12:06:43;100469.66;;;14.75;36.98
65718;BME280;52445;52.466;-1.016;2023-04-25T12:09:11;100473.03;;;14.85;37.32
65718;BME280;52445;52.466;-1.016;2023-04-25T12:11:56;100469.25;;;15.06;38.03
65718;BME280;52445;52.466;-1.016;2023-04-25T12:14:26;100469.81;;;15.27;36.81
65718;BME280;52445;52.466;-1.016;2023-04-25T12:16:56;100473.97;;;15.39;37.04
65718;BME280;52445;52.466;-1.016;2023-04-25T12:19:24;100466.00;;;15.50;37.15
65718;BME280;52445;52.466;-1.016;2023-04-25T12:21:51;100468.69;;;15.44;36.05
65718;BME280;52445;52.466;-1.016;2023-04-25T12:24:23;100473.31;;;15.26;36.49
65718;BME280;52445;52.466;-1.016;2023-04-25T12:26:55;100466.59;;;15.09;36.48
65718;BME280;52445;52.466;-1.016;2023-04-25T12:29:26;100463.09;;;15.10;37.01
65718;BME280;52445;52.466;-1.016;2023-04-25T12:32:00;100469.03;;;15.20;36.67
65718;BME280;52445;52.466;-1.016;2023-04-25T12:34:28;100463.88;;;15.19;36.42
65718;BME280;52445;52.466;-1.016;2023-04-25T12:36:54;100463.09;;;15.10;36.19
65718;BME280;52445;52.466;-1.016;2023-04-25T12:39:23;100471.97;;;15.00;36.07
65718;BME280;52445;52.466;-1.016;2023-04-25T12:41:51;100470.44;;;14.83;36.21
65718;BME280;52445;52.466;-1.016;2023-04-25T12:44:20;100471.38;;;14.77;36.32
65718;BME280;52445;52.466;-1.016;2023-04-25T12:46:48;100473.97;;;14.79;36.89
65718;BME280;52445;52.466;-1.016;2023-04-25T12:49:14;100472.13;;;14.87;36.28
65718;BME280;52445;52.466;-1.016;2023-04-25T12:51:44;100468.50;;;14.98;36.52
65718;BME280;52445;52.466;-1.016;2023-04-25T12:54:11;100468.28;;;15.13;36.85
65718;BME280;52445;52.466;-1.016;2023-04-25T12:56:38;100468.16;;;15.23;35.75
65718;BME280;52445;52.466;-1.016;2023-04-25T12:59:04;100469.75;;;15.30;35.49
65718;BME280;52445;52.466;-1.016;2023-04-25T13:01:31;100471.38;;;15.37;35.90
65718;BME280;52445;52.466;-1.016;2023-04-25T13:04:01;100467.91;;;15.38;35.69